Time;durP1;ratioP1;P1;durP2;ratioP2;P2;SDS_P1;SDS_P2;PMS_P1;PMS_P2;Temp;Humidity;BMP_temperature;BMP_pressure;BME280_temperature;BME280_humidity;BME280_pressure;Samples;Min_cycle;Max_cycle;Signal;HPM_P1;HPM_P2
2021/06/15 00:06:46;;;;;;;6.63;4.20;;;;;;;;;;20887328;28;20661;-58
2021/06/15 00:16:47;;;;;;;5.83;5.07;;;;;;;;;;20826921;28;20459;-58
2021/06/15 00:26:47;;;;;;;12.57;5.13;;;;;;;;;;20826233;28;20204;-61
2021/06/15 00:36:47;;;;;;;7.33;5.00;;;;;;;;;;20825502;28;20221;-65
2021/06/15 00:46:48;;;;;;;6.03;4.87;;;;;;;;;;20824828;28;20661;-67
2021/06/15 00:56:48;;;;;;;5.27;4.83;;;;;;;;;;20825903;28;20259;-58
2021/06/15 01:06:48;;;;;;;6.53;5.20;;;;;;;;;;20852205;28;20231;-59
2021/06/15 01:17:01;;;;;;;8.20;5.87;;;;;;;;;;20857333;28;20227;-57
2021/06/15 01:27:01;;;;;;;6.40;5.63;;;;;;;;;;20821779;28;20216;-57
2021/06/15 01:37:20;;;;;;;10.00;6.57;;;;;;;;;;20821235;28;20228;-67
2021/06/15 01:47:23;;;;;;;7.50;5.93;;;;;;;;;;20822740;28;20858;-57
2021/06/15 01:57:23;;;;;;;5.90;5.30;;;;;;;;;;20848185;28;20228;-57
2021/06/15 02:07:27;;;;;;;8.83;5.70;;;;;;;;;;20829012;28;20266;-57
2021/06/15 02:17:29;;;;;;;6.50;5.80;;;;;;;;;;20848021;28;20730;-57
2021/06/15 02:27:29;;;;;;;6.00;5.33;;;;;;;;;;20874949;28;20616;-59
2021/06/15 02:37:32;;;;;;;6.00;5.47;;;;;;;;;;20834912;28;20247;-64
2021/06/15 02:47:34;;;;;;;6.30;5.03;;;;;;;;;;20834418;28;20215;-57
2021/06/15 02:57:34;;;;;;;5.77;5.17;;;;;;;;;;20865298;28;20620;-58
2021/06/15 03:07:35;;;;;;;6.50;5.20;;;;;;;;;;20832788;28;20269;-58
2021/06/15 03:17:37;;;;;;;5.90;5.23;;;;;;;;;;20832003;28;20227;-58
2021/06/15 03:27:44;;;;;;;7.70;5.10;;;;;;;;;;20830502;28;20234;-58
2021/06/15 03:37:52;;;;;;;5.30;4.73;;;;;;;;;;20830275;28;20264;-58
2021/06/15 03:47:53;;;;;;;4.40;4.00;;;;;;;;;;20829867;28;20208;-60
2021/06/15 03:57:54;;;;;;;5.40;4.32;;;;;;;;;;20829002;28;20220;-58
2021/06/15 04:08:00;;;;;;;4.90;4.50;;;;;;;;;;20828253;28;20219;-62
2021/06/15 04:18:04;;;;;;;6.78;5.20;;;;;;;;;;20827056;28;20528;-60
2021/06/15 04:28:05;;;;;;;5.30;4.80;;;;;;;;;;20826622;28;20216;-62
2021/06/15 04:38:09;;;;;;;5.45;4.95;;;;;;;;;;20824769;28;20716;-66
2021/06/15 04:48:11;;;;;;;5.78;4.95;;;;;;;;;;20825206;28;20212;-59
2021/06/15 04:58:12;;;;;;;6.43;5.77;;;;;;;;;;20824011;28;20277;-58
2021/06/15 05:08:14;;;;;;;9.27;6.07;;;;;;;;;;20834359;28;20207;-58
2021/06/15 05:18:14;;;;;;;8.77;6.07;;;;;;;;;;20821464;28;20286;-57
2021/06/15 05:28:15;;;;;;;10.07;6.63;;;;;;;;;;20797449;28;20620;-58
2021/06/15 05:38:16;;;;;;;8.17;6.70;;;;;;;;;;20911604;28;20824;-58
2021/06/15 05:48:16;;;;;;;8.80;6.90;;;;;;;;;;20884927;28;20869;-59
2021/06/15 05:58:17;;;;;;;10.20;7.80;;;;;;;;;;20865594;28;20250;-68
2021/06/15 06:08:21;;;;;;;8.33;7.07;;;;;;;;;;20794712;28;20597;-60
2021/06/15 06:18:21;;;;;;;7.47;6.40;;;;;;;;;;20799417;28;20748;-59
2021/06/15 06:28:22;;;;;;;10.03;7.97;;;;;;;;;;20802381;28;20309;-60
2021/06/15 06:38:23;;;;;;;10.17;7.40;;;;;;;;;;20790901;28;20303;-59
2021/06/15 06:48:23;;;;;;;7.83;6.43;;;;;;;;;;20807751;28;20612;-62
2021/06/15 06:58:24;;;;;;;9.43;7.33;;;;;;;;;;20785314;28;20243;-63
2021/06/15 07:08:25;;;;;;;8.37;6.07;;;;;;;;;;20821249;28;20508;-60
2021/06/15 07:18:25;;;;;;;9.20;7.80;;;;;;;;;;20799887;28;20227;-60
2021/06/15 07:28:26;;;;;;;9.50;7.03;;;;;;;;;;20818025;28;20204;-60
2021/06/15 07:38:26;;;;;;;7.27;6.03;;;;;;;;;;20805023;28;20319;-60
2021/06/15 07:48:26;;;;;;;10.17;6.83;;;;;;;;;;20809607;28;20255;-63
2021/06/15 07:58:26;;;;;;;9.37;7.40;;;;;;;;;;20812557;28;20231;-61
2021/06/15 08:08:27;;;;;;;9.03;7.00;;;;;;;;;;20799082;28;20208;-61
2021/06/15 08:18:27;;;;;;;7.70;6.97;;;;;;;;;;20815636;28;20223;-59
2021/06/15 08:28:28;;;;;;;8.97;6.37;;;;;;;;;;20792353;28;20224;-61
2021/06/15 08:38:28;;;;;;;8.50;6.43;;;;;;;;;;20814028;28;20239;-60
2021/06/15 08:48:31;;;;;;;10.37;8.27;;;;;;;;;;20793464;28;20200;-64
2021/06/15 08:58:45;;;;;;;9.73;5.20;;;;;;;;;;20810519;28;20234;-60
2021/06/15 09:08:53;;;;;;;8.73;6.40;;;;;;;;;;20797895;28;20278;-65
2021/06/15 09:18:58;;;;;;;8.27;6.33;;;;;;;;;;20803248;28;20223;-62
2021/06/15 09:28:59;;;;;;;7.93;6.33;;;;;;;;;;20803518;28;20266;-60
2021/06/15 09:39:00;;;;;;;8.00;5.97;;;;;;;;;;20794513;28;20236;-60
2021/06/15 09:49:01;;;;;;;5.63;4.80;;;;;;;;;;20809713;28;20208;-59
2021/06/15 09:59:01;;;;;;;5.55;5.03;;;;;;;;;;20787107;28;20235;-59
2021/06/15 10:09:02;;;;;;;7.33;5.60;;;;;;;;;;20808990;28;20295;-60
2021/06/15 10:19:03;;;;;;;4.95;4.40;;;;;;;;;;20787282;28;20323;-63
2021/06/15 10:29:09;;;;;;;7.53;4.78;;;;;;;;;;20807277;28;20208;-68
2021/06/15 10:39:11;;;;;;;6.60;5.05;;;;;;;;;;20802847;28;20228;-61
2021/06/15 10:49:15;;;;;;;7.60;5.00;;;;;;;;;;20815320;28;20211;-60
2021/06/15 10:59:15;;;;;;;6.63;4.85;;;;;;;;;;20814948;28;20227;-60
2021/06/15 11:09:18;;;;;;;6.28;5.13;;;;;;;;;;20806048;28;20223;-59
2021/06/15 11:19:21;;;;;;;5.32;4.38;;;;;;;;;;20820450;28;20290;-60
2021/06/15 11:29:44;;;;;;;5.95;5.05;;;;;;;;;;20797602;28;20227;-60
2021/06/15 11:39:44;;;;;;;7.95;5.65;;;;;;;;;;20818405;28;20231;-62
2021/06/15 11:50:01;;;;;;;4.43;4.03;;;;;;;;;;20795275;28;20212;-59
2021/06/15 12:00:02;;;;;;;4.60;4.03;;;;;;;;;;20816875;28;20247;-61
2021/06/15 12:10:02;;;;;;;4.95;4.45;;;;;;;;;;20831233;28;20250;-61
2021/06/15 12:20:19;;;;;;;6.47;5.22;;;;;;;;;;20810563;28;20295;-60
2021/06/15 12:30:20;;;;;;;5.25;4.20;;;;;;;;;;20804800;28;20530;-60
2021/06/15 12:40:20;;;;;;;5.68;5.07;;;;;;;;;;20801801;28;20249;-61
2021/06/15 12:50:21;;;;;;;7.07;4.53;;;;;;;;;;20812612;28;20273;-63
2021/06/15 13:00:21;;;;;;;4.97;4.38;;;;;;;;;;20790059;28;20224;-59
2021/06/15 13:10:22;;;;;;;4.57;4.18;;;;;;;;;;20812051;28;20219;-60
2021/06/15 13:20:23;;;;;;;4.38;3.97;;;;;;;;;;20788285;28;20638;-69
2021/06/15 13:30:27;;;;;;;3.80;3.42;;;;;;;;;;20811153;28;20234;-65
2021/06/15 13:40:38;;;;;;;5.60;4.57;;;;;;;;;;20791847;28;20238;-60
2021/06/15 13:50:40;;;;;;;4.95;4.20;;;;;;;;;;20805315;28;20200;-59
2021/06/15 14:00:41;;;;;;;5.65;4.60;;;;;;;;;;20798903;28;20471;-59
2021/06/15 14:10:41;;;;;;;4.22;3.83;;;;;;;;;;20803737;28;20204;-58
2021/06/15 14:20:44;;;;;;;4.93;4.03;;;;;;;;;;20822123;28;20311;-58
2021/06/15 14:30:45;;;;;;;5.78;4.55;;;;;;;;;;20803630;28;20208;-59
2021/06/15 14:40:45;;;;;;;4.47;4.07;;;;;;;;;;20823119;28;20227;-59
2021/06/15 14:50:46;;;;;;;6.38;4.65;;;;;;;;;;20800077;28;20216;-65
2021/06/15 15:00:48;;;;;;;7.80;4.63;;;;;;;;;;20820581;28;21025;-59
2021/06/15 15:10:48;;;;;;;5.20;4.38;;;;;;;;;;20802837;28;20212;-59
2021/06/15 15:20:51;;;;;;;5.38;4.88;;;;;;;;;;20815257;28;20228;-60
2021/06/15 15:30:52;;;;;;;6.32;5.13;;;;;;;;;;20808371;28;20951;-59
2021/06/15 15:40:52;;;;;;;4.70;4.30;;;;;;;;;;20803493;28;20236;-59
2021/06/15 15:50:53;;;;;;;4.97;4.60;;;;;;;;;;20814469;28;20708;-60
2021/06/15 16:00:53;;;;;;;5.67;5.17;;;;;;;;;;20839602;28;20631;-58
2021/06/15 16:10:53;;;;;;;5.07;4.53;;;;;;;;;;20879707;28;20454;-60
2021/06/15 16:20:54;;;;;;;5.65;5.07;;;;;;;;;;20829128;28;20223;-58
2021/06/15 16:30:54;;;;;;;5.77;5.07;;;;;;;;;;20889196;28;20227;-58
2021/06/15 16:40:54;;;;;;;7.53;5.33;;;;;;;;;;20851084;28;20235;-59
2021/06/15 16:50:55;;;;;;;4.43;3.97;;;;;;;;;;20839356;28;20219;-58
2021/06/15 17:00:55;;;;;;;4.87;4.50;;;;;;;;;;20802727;28;20863;-58
2021/06/15 17:10:55;;;;;;;7.30;4.70;;;;;;;;;;20798526;28;20204;-63
2021/06/15 17:20:56;;;;;;;8.30;4.93;;;;;;;;;;20813018;28;20243;-60
2021/06/15 17:30:57;;;;;;;6.03;5.50;;;;;;;;;;20822214;28;20200;-58
2021/06/15 17:40:57;;;;;;;5.03;4.63;;;;;;;;;;20829770;28;20246;-63
2021/06/15 17:50:57;;;;;;;5.90;5.30;;;;;;;;;;20895055;28;20546;-59
2021/06/15 18:00:58;;;;;;;8.43;5.60;;;;;;;;;;20819786;28;20712;-61
2021/06/15 18:10:58;;;;;;;6.30;5.17;;;;;;;;;;20804478;28;20263;-58
2021/06/15 18:20:58;;;;;;;5.70;5.10;;;;;;;;;;20829606;28;20227;-58
2021/06/15 18:31:00;;;;;;;5.57;5.07;;;;;;;;;;20822722;28;20211;-65
2021/06/15 18:41:02;;;;;;;6.83;4.50;;;;;;;;;;20804779;28;20255;-60
2021/06/15 18:51:02;;;;;;;7.40;5.57;;;;;;;;;;20830860;28;20216;-57
2021/06/15 19:01:03;;;;;;;6.60;5.53;;;;;;;;;;20803734;28;20224;-57
2021/06/15 19:11:03;;;;;;;7.50;5.33;;;;;;;;;;20810368;28;20218;-61
2021/06/15 19:21:04;;;;;;;6.83;6.17;;;;;;;;;;20810795;28;20326;-63
2021/06/15 19:31:05;;;;;;;7.80;6.57;;;;;;;;;;20819243;28;20670;-59
2021/06/15 19:41:05;;;;;;;9.63;7.90;;;;;;;;;;20785181;28;20797;-57
2021/06/15 19:51:06;;;;;;;8.00;7.20;;;;;;;;;;20800024;28;20208;-59
2021/06/15 20:01:07;;;;;;;10.57;7.83;;;;;;;;;;20815665;28;20227;-58
2021/06/15 20:11:08;;;;;;;11.20;7.83;;;;;;;;;;20820566;28;20219;-57
2021/06/15 20:21:09;;;;;;;9.87;8.30;;;;;;;;;;20826640;28;20224;-59
2021/06/15 20:31:09;;;;;;;9.13;7.33;;;;;;;;;;20816738;28;20665;-62
2021/06/15 20:41:10;;;;;;;9.70;7.70;;;;;;;;;;20822312;28;20287;-67
2021/06/15 20:51:10;;;;;;;8.70;7.57;;;;;;;;;;20793118;28;20225;-60
2021/06/15 21:01:10;;;;;;;8.47;7.17;;;;;;;;;;20822735;28;20697;-57
2021/06/15 21:11:11;;;;;;;7.37;6.67;;;;;;;;;;20787844;28;20230;-59
2021/06/15 21:21:12;;;;;;;9.17;6.77;;;;;;;;;;20827313;28;20221;-57
2021/06/15 21:31:14;;;;;;;7.33;6.23;;;;;;;;;;20850107;28;20306;-60
2021/06/15 21:41:14;;;;;;;8.53;7.30;;;;;;;;;;20831947;28;20318;-59
2021/06/15 21:51:15;;;;;;;8.10;7.30;;;;;;;;;;20855640;28;20699;-69
2021/06/15 22:01:15;;;;;;;8.73;6.93;;;;;;;;;;20806194;28;20657;-59
2021/06/15 22:11:16;;;;;;;14.13;10.37;;;;;;;;;;20835828;28;20353;-58
2021/06/15 22:21:16;;;;;;;10.67;9.27;;;;;;;;;;20805981;28;20259;-65
2021/06/15 22:41:54;;;;;;;14.17;11.73;;;;;;;;;;20873796;28;20362;-61
2021/06/15 22:51:56;;;;;;;18.30;13.20;;;;;;;;;;20860636;28;20345;-59
2021/06/15 23:01:57;;;;;;;18.60;13.80;;;;;;;;;;20849948;28;21244;-59
2021/06/15 23:11:57;;;;;;;13.17;11.87;;;;;;;;;;20823135;28;20216;-57
2021/06/15 23:21:57;;;;;;;13.63;12.20;;;;;;;;;;20864011;28;20235;-58
2021/06/15 23:31:58;;;;;;;13.63;12.33;;;;;;;;;;20829328;28;20298;-67
2021/06/15 23:41:58;;;;;;;16.13;14.37;;;;;;;;;;20847626;28;20234;-62
2021/06/15 23:51:59;;;;;;;12.53;10.93;;;;;;;;;;20823257;28;20231;-58
